Time;durP1;ratioP1;P1;durP2;ratioP2;P2;SDS_P1;SDS_P2;PMS_P1;PMS_P2;Temp;Humidity;BMP_temperature;BMP_pressure;BME280_temperature;BME280_humidity;BME280_pressure;Samples;Min_cycle;Max_cycle;Signal;HPM_P1;HPM_P2
2024/03/24 00:01:05;;;;;;;20.50;5.80;;;;;;;;;;2064175;28;20077;-54
2024/03/24 00:02:06;;;;;;;25.20;6.20;;;;;;;;;;2064870;28;20073;-54
2024/03/24 00:03:08;;;;;;;23.30;6.40;;;;;;;;;;2064854;28;20019;-55
2024/03/24 00:04:09;;;;;;;15.27;5.72;;;;;;;;;;2064036;28;20015;-54
2024/03/24 00:05:11;;;;;;;18.63;5.13;;;;;;;;;;2064026;28;20568;-52
2024/03/24 00:06:14;;;;;;;22.02;5.55;;;;;;;;;;2064961;28;20014;-51
2024/03/24 00:07:15;;;;;;;18.58;5.35;;;;;;;;;;2064829;28;20085;-52
2024/03/24 00:08:17;;;;;;;17.27;5.13;;;;;;;;;;2065300;28;20080;-54
2024/03/24 00:09:18;;;;;;;19.95;5.40;;;;;;;;;;2066436;28;20033;-53
2024/03/24 00:10:19;;;;;;;18.58;5.32;;;;;;;;;;2065761;28;20010;-55
2024/03/24 00:11:21;;;;;;;21.55;6.65;;;;;;;;;;2064855;28;20046;-55
2024/03/24 00:12:22;;;;;;;16.10;5.25;;;;;;;;;;2062818;28;20654;-52
2024/03/24 00:13:24;;;;;;;17.33;4.78;;;;;;;;;;2065764;28;20018;-51
2024/03/24 00:14:25;;;;;;;25.88;5.50;;;;;;;;;;2065824;28;20505;-49
2024/03/24 00:15:27;;;;;;;19.73;5.10;;;;;;;;;;2065582;28;20045;-52
2024/03/24 00:16:29;;;;;;;19.20;5.75;;;;;;;;;;2063787;28;20034;-53
2024/03/24 00:17:30;;;;;;;15.15;5.20;;;;;;;;;;2058409;28;20085;-53
2024/03/24 00:18:32;;;;;;;17.95;5.70;;;;;;;;;;2058412;28;20430;-53
2024/03/24 00:19:34;;;;;;;19.67;4.72;;;;;;;;;;2058277;28;20021;-52
2024/03/24 00:20:36;;;;;;;23.05;5.95;;;;;;;;;;2058256;28;20030;-48
2024/03/24 00:21:37;;;;;;;22.80;5.78;;;;;;;;;;2058223;28;20047;-53
2024/03/24 00:22:38;;;;;;;17.08;5.30;;;;;;;;;;2057693;28;20027;-53
2024/03/24 00:23:39;;;;;;;18.00;5.47;;;;;;;;;;2057838;28;20022;-53
2024/03/24 00:24:41;;;;;;;21.95;5.70;;;;;;;;;;2051941;28;20494;-53
2024/03/24 00:25:42;;;;;;;18.15;4.93;;;;;;;;;;2053721;28;20019;-54
2024/03/24 00:26:43;;;;;;;20.35;4.78;;;;;;;;;;2058298;28;20461;-54
2024/03/24 00:27:45;;;;;;;25.45;5.78;;;;;;;;;;2064625;28;20064;-53
2024/03/24 00:28:46;;;;;;;25.15;5.68;;;;;;;;;;2057901;28;20031;-53
2024/03/24 00:29:47;;;;;;;21.40;6.00;;;;;;;;;;2058237;28;20130;-52
2024/03/24 00:30:49;;;;;;;19.33;5.80;;;;;;;;;;2057366;28;20054;-54
2024/03/24 00:31:50;;;;;;;25.75;5.60;;;;;;;;;;2057731;28;20526;-53
2024/03/24 00:32:52;;;;;;;16.75;5.40;;;;;;;;;;2058043;28;20035;-53
2024/03/24 00:33:54;;;;;;;20.50;5.63;;;;;;;;;;2058178;28;20027;-54
2024/03/24 00:34:55;;;;;;;20.25;5.63;;;;;;;;;;2058227;28;20015;-53
2024/03/24 00:35:57;;;;;;;18.20;5.32;;;;;;;;;;2061516;28;20426;-52
2024/03/24 00:36:59;;;;;;;23.30;5.68;;;;;;;;;;2058048;28;20126;-54
2024/03/24 00:38:01;;;;;;;17.88;5.40;;;;;;;;;;2058164;28;20007;-54
2024/03/24 00:39:06;;;;;;;15.27;5.03;;;;;;;;;;2058204;28;20098;-55
2024/03/24 00:40:09;;;;;;;15.02;4.38;;;;;;;;;;2057316;28;20019;-49
2024/03/24 00:41:10;;;;;;;16.77;4.65;;;;;;;;;;2057514;28;20537;-54
2024/03/24 00:42:11;;;;;;;15.90;5.03;;;;;;;;;;2065398;28;20084;-55
2024/03/24 00:43:13;;;;;;;17.65;4.93;;;;;;;;;;2066065;28;20068;-53
2024/03/24 00:44:14;;;;;;;22.63;5.20;;;;;;;;;;2065128;28;20109;-55
2024/03/24 00:45:15;;;;;;;22.10;4.90;;;;;;;;;;2065217;28;20453;-53
2024/03/24 00:46:17;;;;;;;21.05;6.47;;;;;;;;;;2057124;28;20022;-47
2024/03/24 00:47:19;;;;;;;23.23;5.75;;;;;;;;;;2065546;28;20022;-57
2024/03/24 00:48:20;;;;;;;17.23;4.95;;;;;;;;;;2065968;28;20053;-49
2024/03/24 00:49:22;;;;;;;17.20;4.60;;;;;;;;;;2066080;28;20030;-50
2024/03/24 00:50:23;;;;;;;19.05;5.05;;;;;;;;;;2057277;28;20046;-50
2024/03/24 00:51:24;;;;;;;18.38;4.95;;;;;;;;;;2057388;28;20062;-55
2024/03/24 00:52:26;;;;;;;15.25;5.05;;;;;;;;;;2065964;28;20473;-54
2024/03/24 00:53:27;;;;;;;26.98;6.32;;;;;;;;;;2066219;28;20030;-47
2024/03/24 00:54:28;;;;;;;14.40;5.18;;;;;;;;;;2065309;28;20029;-47
2024/03/24 00:55:30;;;;;;;19.83;5.25;;;;;;;;;;2065448;28;20062;-47
2024/03/24 00:56:31;;;;;;;20.08;5.70;;;;;;;;;;2065898;28;20395;-47
2024/03/24 00:57:32;;;;;;;19.23;5.43;;;;;;;;;;2065872;28;20034;-47
2024/03/24 00:58:34;;;;;;;14.48;5.43;;;;;;;;;;2065867;28;20022;-47
2024/03/24 00:59:35;;;;;;;16.77;5.03;;;;;;;;;;2057157;28;20046;-47
2024/03/24 01:00:36;;;;;;;15.98;6.22;;;;;;;;;;2057311;28;20026;-47
2024/03/24 01:01:39;;;;;;;19.25;5.65;;;;;;;;;;2065844;28;20026;-46
2024/03/24 01:02:40;;;;;;;17.40;3.97;;;;;;;;;;2065314;28;20499;-47
2024/03/24 01:03:41;;;;;;;16.52;4.88;;;;;;;;;;2065301;28;20418;-47
2024/03/24 01:04:43;;;;;;;14.93;4.78;;;;;;;;;;2065759;28;20443;-47
2024/03/24 01:05:46;;;;;;;13.73;4.10;;;;;;;;;;2065406;28;20374;-48
2024/03/24 01:06:47;;;;;;;15.40;4.35;;;;;;;;;;2065404;28;20026;-46
2024/03/24 01:07:50;;;;;;;12.93;4.57;;;;;;;;;;2065776;28;20038;-48
2024/03/24 01:08:51;;;;;;;17.83;4.25;;;;;;;;;;2065195;28;20034;-47
2024/03/24 01:09:54;;;;;;;16.75;4.45;;;;;;;;;;2064966;28;20458;-47
2024/03/24 01:10:56;;;;;;;16.60;4.60;;;;;;;;;;2065817;28;20038;-47
2024/03/24 01:11:57;;;;;;;14.48;4.93;;;;;;;;;;2065930;28;20393;-46
2024/03/24 01:12:58;;;;;;;13.93;4.72;;;;;;;;;;2065819;28;20109;-49
2024/03/24 01:14:00;;;;;;;17.88;4.28;;;;;;;;;;2065179;28;20420;-49
2024/03/24 01:15:01;;;;;;;12.10;4.60;;;;;;;;;;2065429;28;20125;-50
2024/03/24 01:16:05;;;;;;;16.80;4.45;;;;;;;;;;2065220;28;20026;-49
2024/03/24 01:17:06;;;;;;;14.43;4.38;;;;;;;;;;2058307;28;20022;-49
2024/03/24 01:18:07;;;;;;;16.70;4.28;;;;;;;;;;2057897;28;20385;-49
2024/03/24 01:19:09;;;;;;;14.20;4.90;;;;;;;;;;2057644;28;20547;-49
2024/03/24 01:20:11;;;;;;;13.88;4.30;;;;;;;;;;2057016;28;20026;-49
2024/03/24 01:21:12;;;;;;;13.27;4.28;;;;;;;;;;2057070;28;20042;-51
2024/03/24 01:22:13;;;;;;;15.82;4.13;;;;;;;;;;2057238;28;20015;-51
2024/03/24 01:23:15;;;;;;;15.90;4.90;;;;;;;;;;2057840;28;20019;-47
2024/03/24 01:24:16;;;;;;;11.18;4.03;;;;;;;;;;2057253;28;20082;-50
2024/03/24 01:25:17;;;;;;;15.25;4.43;;;;;;;;;;2063917;28;20034;-49
2024/03/24 01:26:19;;;;;;;13.70;4.45;;;;;;;;;;2062273;28;20027;-49
2024/03/24 01:27:20;;;;;;;14.10;4.15;;;;;;;;;;2057181;28;20062;-49
2024/03/24 01:28:21;;;;;;;15.30;4.20;;;;;;;;;;2057896;28;20135;-49
2024/03/24 01:29:24;;;;;;;13.60;4.15;;;;;;;;;;2057689;28;20031;-48
2024/03/24 01:30:25;;;;;;;11.85;4.45;;;;;;;;;;2061262;28;20455;-51
2024/03/24 01:31:26;;;;;;;9.85;3.85;;;;;;;;;;2057089;28;20609;-49
2024/03/24 01:32:29;;;;;;;13.13;4.20;;;;;;;;;;2057133;28;20105;-51
2024/03/24 01:33:30;;;;;;;14.65;3.90;;;;;;;;;;2057088;28;20561;-49
2024/03/24 01:34:31;;;;;;;15.60;3.78;;;;;;;;;;2057080;28;20034;-50
2024/03/24 01:35:33;;;;;;;14.10;4.28;;;;;;;;;;2057810;28;20015;-50
2024/03/24 01:36:34;;;;;;;17.67;4.25;;;;;;;;;;2060587;28;20413;-49
2024/03/24 01:37:36;;;;;;;16.83;4.90;;;;;;;;;;2057579;28;20451;-51
2024/03/24 01:38:37;;;;;;;11.63;4.15;;;;;;;;;;2060204;28;20042;-48
2024/03/24 01:39:40;;;;;;;16.00;4.60;;;;;;;;;;2058450;28;20457;-48
2024/03/24 01:40:51;;;;;;;11.70;4.60;;;;;;;;;;2060619;28;20034;-49
2024/03/24 01:41:53;;;;;;;20.48;4.22;;;;;;;;;;2059952;28;20026;-49
2024/03/24 01:42:54;;;;;;;16.35;4.20;;;;;;;;;;2064394;28;20031;-49
2024/03/24 01:43:56;;;;;;;11.73;3.92;;;;;;;;;;2064843;28;20029;-51
2024/03/24 01:44:57;;;;;;;12.20;4.20;;;;;;;;;;2065214;28;20027;-48
2024/03/24 01:45:58;;;;;;;15.00;4.22;;;;;;;;;;2064957;28;20042;-50
2024/03/24 01:47:00;;;;;;;9.95;4.03;;;;;;;;;;2064607;28;20027;-49
2024/03/24 01:48:01;;;;;;;9.68;4.03;;;;;;;;;;2055493;28;20023;-47
2024/03/24 01:49:03;;;;;;;14.32;4.10;;;;;;;;;;2064603;28;20065;-46
2024/03/24 01:50:05;;;;;;;14.38;4.53;;;;;;;;;;2064634;28;20575;-47
2024/03/24 01:51:09;;;;;;;10.32;4.00;;;;;;;;;;2059203;28;20023;-45
2024/03/24 01:52:13;;;;;;;11.45;3.88;;;;;;;;;;2061011;28;20104;-45
2024/03/24 01:53:14;;;;;;;16.90;3.75;;;;;;;;;;2059315;28;20023;-45
2024/03/24 01:54:16;;;;;;;14.75;4.28;;;;;;;;;;2063225;28;20014;-46
2024/03/24 01:55:17;;;;;;;20.20;4.72;;;;;;;;;;2060974;28;20030;-45
2024/03/24 01:56:18;;;;;;;15.85;3.80;;;;;;;;;;2060191;28;20058;-44
2024/03/24 01:57:20;;;;;;;12.35;4.53;;;;;;;;;;2053239;28;20106;-49
2024/03/24 01:58:21;;;;;;;17.40;4.63;;;;;;;;;;2058702;28;20101;-47
2024/03/24 01:59:22;;;;;;;20.45;4.55;;;;;;;;;;2061764;28;20511;-47
2024/03/24 02:00:24;;;;;;;12.65;3.67;;;;;;;;;;2059673;28;20543;-52
2024/03/24 02:01:27;;;;;;;14.57;4.70;;;;;;;;;;2058969;28;20467;-52
2024/03/24 02:02:28;;;;;;;15.52;3.67;;;;;;;;;;2064336;28;20477;-53
2024/03/24 02:03:31;;;;;;;13.88;3.90;;;;;;;;;;2062605;28;20031;-52
2024/03/24 02:04:32;;;;;;;15.82;3.95;;;;;;;;;;2060251;28;20034;-53
2024/03/24 02:05:33;;;;;;;16.35;3.63;;;;;;;;;;2056639;28;20090;-51
2024/03/24 02:06:35;;;;;;;12.43;3.83;;;;;;;;;;2058966;28;20038;-53
2024/03/24 02:07:36;;;;;;;14.40;4.47;;;;;;;;;;2057713;28;20031;-51
2024/03/24 02:08:37;;;;;;;12.88;4.25;;;;;;;;;;2055364;28;20393;-50
2024/03/24 02:09:39;;;;;;;11.75;4.00;;;;;;;;;;2061766;28;20405;-51
2024/03/24 02:10:40;;;;;;;12.23;4.18;;;;;;;;;;2056788;28;20378;-54
2024/03/24 02:11:41;;;;;;;9.43;3.35;;;;;;;;;;2057010;28;20106;-55
2024/03/24 02:12:43;;;;;;;11.65;2.95;;;;;;;;;;2057037;28;20027;-47
2024/03/24 02:13:44;;;;;;;10.80;3.90;;;;;;;;;;2062960;28;20031;-53
2024/03/24 02:14:45;;;;;;;9.20;3.55;;;;;;;;;;2064590;28;20519;-53
2024/03/24 02:15:50;;;;;;;7.97;3.40;;;;;;;;;;2060562;28;20102;-52
2024/03/24 02:16:52;;;;;;;5.80;3.10;;;;;;;;;;2063692;28;20019;-52
2024/03/24 02:17:53;;;;;;;11.18;3.70;;;;;;;;;;2059785;28;20030;-52
2024/03/24 02:18:55;;;;;;;10.98;2.92;;;;;;;;;;2060135;28;20011;-53
2024/03/24 02:19:57;;;;;;;11.45;3.10;;;;;;;;;;2057337;28;20011;-53
2024/03/24 02:20:58;;;;;;;8.15;2.88;;;;;;;;;;2059787;28;20034;-52
2024/03/24 02:21:59;;;;;;;11.05;3.47;;;;;;;;;;2060010;28;20506;-50
2024/03/24 02:23:01;;;;;;;9.73;2.85;;;;;;;;;;2059293;28;20025;-49
2024/03/24 02:24:02;;;;;;;11.25;3.13;;;;;;;;;;2061254;28;20471;-49
2024/03/24 02:25:05;;;;;;;11.00;3.33;;;;;;;;;;2060342;28;20025;-50
2024/03/24 02:26:06;;;;;;;10.48;3.10;;;;;;;;;;2061901;28;20014;-49
2024/03/24 02:27:08;;;;;;;11.35;3.25;;;;;;;;;;2059728;28;20409;-50
2024/03/24 02:28:10;;;;;;;10.85;3.47;;;;;;;;;;2059721;28;20035;-49
2024/03/24 02:29:15;;;;;;;12.07;3.15;;;;;;;;;;2061006;28;20049;-51
2024/03/24 02:30:16;;;;;;;9.95;3.25;;;;;;;;;;2064579;28;20489;-50
2024/03/24 02:31:17;;;;;;;9.02;3.10;;;;;;;;;;2064195;28;20022;-48
2024/03/24 02:32:19;;;;;;;13.05;3.55;;;;;;;;;;2062718;28;20422;-50
2024/03/24 02:33:20;;;;;;;9.50;2.97;;;;;;;;;;2062400;28;20398;-49
2024/03/24 02:34:24;;;;;;;12.30;4.38;;;;;;;;;;2064704;28;20054;-50
2024/03/24 02:35:26;;;;;;;13.93;4.03;;;;;;;;;;2065048;28;20114;-49
2024/03/24 02:36:27;;;;;;;14.00;3.97;;;;;;;;;;2064882;28;20022;-49
2024/03/24 02:37:28;;;;;;;12.23;4.13;;;;;;;;;;2062563;28;20184;-49
2024/03/24 02:38:29;;;;;;;14.75;4.07;;;;;;;;;;2059832;28;20557;-51
2024/03/24 02:39:31;;;;;;;13.75;3.90;;;;;;;;;;2060327;28;20445;-50
2024/03/24 02:40:32;;;;;;;13.70;4.07;;;;;;;;;;2064320;28;20097;-50
2024/03/24 02:41:34;;;;;;;12.57;4.15;;;;;;;;;;2064870;28;20014;-50
2024/03/24 02:42:35;;;;;;;11.77;4.30;;;;;;;;;;2064152;28;20096;-48
2024/03/24 02:43:37;;;;;;;12.30;4.30;;;;;;;;;;2057165;28;20018;-50
2024/03/24 02:44:38;;;;;;;13.75;4.55;;;;;;;;;;2062920;28;20031;-48
2024/03/24 02:45:39;;;;;;;13.07;4.28;;;;;;;;;;2051209;28;20103;-49
2024/03/24 02:46:41;;;;;;;11.90;4.38;;;;;;;;;;2048318;28;20446;-51
2024/03/24 02:47:42;;;;;;;15.15;4.18;;;;;;;;;;2056201;28;20057;-49
2024/03/24 02:48:43;;;;;;;16.42;4.30;;;;;;;;;;2056271;28;20457;-49
2024/03/24 02:49:45;;;;;;;12.18;4.10;;;;;;;;;;2059340;28;20026;-50
2024/03/24 02:50:46;;;;;;;15.48;4.53;;;;;;;;;;2065168;28;20065;-48
2024/03/24 02:51:47;;;;;;;16.92;4.35;;;;;;;;;;2065004;28;20034;-49
2024/03/24 02:52:50;;;;;;;14.82;3.88;;;;;;;;;;2058498;28;20033;-49
2024/03/24 02:53:51;;;;;;;19.45;4.93;;;;;;;;;;2058632;28;20018;-49
2024/03/24 02:54:53;;;;;;;13.90;3.72;;;;;;;;;;2057099;28;20065;-49
2024/03/24 02:55:54;;;;;;;15.82;4.03;;;;;;;;;;2057043;28;20039;-49
2024/03/24 02:56:55;;;;;;;13.82;4.78;;;;;;;;;;2061830;28;20026;-48
2024/03/24 02:57:56;;;;;;;14.07;4.30;;;;;;;;;;2064350;28;20028;-48
2024/03/24 02:58:58;;;;;;;16.38;4.18;;;;;;;;;;2064890;28;20054;-49
2024/03/24 02:59:59;;;;;;;14.02;4.28;;;;;;;;;;2065098;28;20023;-47
2024/03/24 03:01:00;;;;;;;13.40;3.90;;;;;;;;;;2064471;28;20026;-49
2024/03/24 03:02:03;;;;;;;13.57;4.35;;;;;;;;;;2064384;28;20015;-49
2024/03/24 03:03:05;;;;;;;14.43;4.50;;;;;;;;;;2065029;28;20387;-49
2024/03/24 03:04:06;;;;;;;12.27;3.65;;;;;;;;;;2064152;28;20010;-48
2024/03/24 03:05:07;;;;;;;11.35;3.78;;;;;;;;;;2064951;28;20141;-49
2024/03/24 03:06:09;;;;;;;14.35;4.53;;;;;;;;;;2064820;28;20028;-50
2024/03/24 03:07:11;;;;;;;16.15;3.97;;;;;;;;;;2064215;28;20023;-49
2024/03/24 03:08:12;;;;;;;9.85;3.60;;;;;;;;;;2063631;28;20026;-49
2024/03/24 03:09:16;;;;;;;13.77;4.22;;;;;;;;;;2064625;28;20011;-49
2024/03/24 03:10:18;;;;;;;8.18;3.33;;;;;;;;;;2064861;28;20029;-48
2024/03/24 03:11:20;;;;;;;12.75;3.60;;;;;;;;;;2064853;28;20018;-48
2024/03/24 03:12:21;;;;;;;13.20;3.95;;;;;;;;;;2055971;28;20037;-48
2024/03/24 03:13:23;;;;;;;12.10;3.97;;;;;;;;;;2056313;28;20030;-48
2024/03/24 03:14:24;;;;;;;11.73;3.45;;;;;;;;;;2056806;28;20085;-49
2024/03/24 03:15:28;;;;;;;15.18;3.78;;;;;;;;;;2057101;28;20387;-49
2024/03/24 03:16:29;;;;;;;12.15;4.18;;;;;;;;;;2061865;28;20033;-50
2024/03/24 03:17:32;;;;;;;11.13;4.10;;;;;;;;;;2056775;28;20399;-49
2024/03/24 03:18:33;;;;;;;14.15;4.10;;;;;;;;;;2056731;28;20034;-48
2024/03/24 03:19:35;;;;;;;12.45;3.97;;;;;;;;;;2048066;28;20481;-48
2024/03/24 03:20:37;;;;;;;13.35;3.65;;;;;;;;;;2048754;28;20474;-48
2024/03/24 03:21:38;;;;;;;16.48;4.22;;;;;;;;;;2056853;28;20026;-49
2024/03/24 03:22:40;;;;;;;13.77;3.85;;;;;;;;;;2056635;28;20061;-48
2024/03/24 03:23:41;;;;;;;16.80;4.22;;;;;;;;;;2056217;28;20030;-49
2024/03/24 03:24:43;;;;;;;9.25;3.47;;;;;;;;;;2058215;28;20019;-48
2024/03/24 03:25:44;;;;;;;11.18;3.72;;;;;;;;;;2058172;28;20021;-50
2024/03/24 03:26:45;;;;;;;10.65;3.78;;;;;;;;;;2056772;28;20039;-50
2024/03/24 03:27:47;;;;;;;10.02;3.53;;;;;;;;;;2056601;28;20113;-49
2024/03/24 03:28:48;;;;;;;11.30;3.30;;;;;;;;;;2056367;28;20400;-50
2024/03/24 03:29:49;;;;;;;11.25;3.25;;;;;;;;;;2057192;28;20548;-50
2024/03/24 03:30:51;;;;;;;11.85;3.97;;;;;;;;;;2064564;28;20145;-49
2024/03/24 03:31:52;;;;;;;16.55;4.50;;;;;;;;;;2064738;28;20389;-49
2024/03/24 03:32:53;;;;;;;12.82;3.97;;;;;;;;;;2058385;28;20029;-50
2024/03/24 03:33:55;;;;;;;7.18;3.53;;;;;;;;;;2056030;28;20023;-51
2024/03/24 03:34:56;;;;;;;12.05;4.22;;;;;;;;;;2047881;28;20027;-50
2024/03/24 03:35:57;;;;;;;12.85;3.28;;;;;;;;;;2055912;28;20023;-51
2024/03/24 03:36:58;;;;;;;10.65;3.88;;;;;;;;;;2056657;28;20022;-50
2024/03/24 03:38:00;;;;;;;12.50;3.85;;;;;;;;;;2056051;28;20109;-50
2024/03/24 03:39:01;;;;;;;7.88;3.45;;;;;;;;;;2056290;28;20470;-50
2024/03/24 03:40:04;;;;;;;10.40;3.38;;;;;;;;;;2057571;28;20011;-49
2024/03/24 03:41:07;;;;;;;15.85;3.78;;;;;;;;;;2064656;28;20072;-49
2024/03/24 03:42:08;;;;;;;10.73;3.55;;;;;;;;;;2064619;28;20023;-50
2024/03/24 03:43:10;;;;;;;12.57;3.67;;;;;;;;;;2063454;28;20018;-49
2024/03/24 03:44:12;;;;;;;13.60;3.97;;;;;;;;;;2064423;28;20026;-49
2024/03/24 03:45:15;;;;;;;13.18;3.30;;;;;;;;;;2064372;28;20528;-50
2024/03/24 03:46:16;;;;;;;8.43;3.15;;;;;;;;;;2064739;28;20038;-50
2024/03/24 03:47:18;;;;;;;10.25;3.03;;;;;;;;;;2064525;28;20709;-50
2024/03/24 03:48:20;;;;;;;9.23;2.67;;;;;;;;;;2064726;28;20007;-51
2024/03/24 03:49:21;;;;;;;10.90;3.00;;;;;;;;;;2064452;28;20469;-50
2024/03/24 03:50:23;;;;;;;11.13;3.40;;;;;;;;;;2064737;28;20022;-50
2024/03/24 03:51:37;;;;;;;11.55;3.22;;;;;;;;;;2055987;28;20515;-51
2024/03/24 03:52:38;;;;;;;9.02;2.38;;;;;;;;;;2059342;28;20065;-51
2024/03/24 03:53:41;;;;;;;11.73;2.63;;;;;;;;;;2069089;28;20504;-50
2024/03/24 03:54:42;;;;;;;8.35;2.13;;;;;;;;;;2056010;28;20027;-50
2024/03/24 03:55:48;;;;;;;7.80;2.38;;;;;;;;;;2056090;28;20018;-49
2024/03/24 03:56:50;;;;;;;8.32;2.95;;;;;;;;;;2056741;28;20031;-51
2024/03/24 03:57:51;;;;;;;7.07;2.03;;;;;;;;;;2055843;28;20498;-48
2024/03/24 03:58:53;;;;;;;14.73;2.72;;;;;;;;;;2055859;28;20027;-49
2024/03/24 03:59:55;;;;;;;10.48;2.25;;;;;;;;;;2064635;28;20026;-50
2024/03/24 04:00:56;;;;;;;13.05;2.72;;;;;;;;;;2064625;28;20073;-51
2024/03/24 04:01:57;;;;;;;7.05;2.38;;;;;;;;;;2064681;28;20069;-51
2024/03/24 04:02:59;;;;;;;6.30;2.22;;;;;;;;;;2064529;28;20021;-50
2024/03/24 04:04:00;;;;;;;9.15;2.63;;;;;;;;;;2063478;28;20464;-50
2024/03/24 04:05:01;;;;;;;8.50;2.35;;;;;;;;;;2063500;28;20022;-48
2024/03/24 04:06:03;;;;;;;6.25;2.67;;;;;;;;;;2063746;28;20019;-51
2024/03/24 04:07:05;;;;;;;10.88;1.88;;;;;;;;;;2063743;28;20049;-51
2024/03/24 04:08:09;;;;;;;7.95;2.20;;;;;;;;;;2063872;28;20034;-50
2024/03/24 04:09:16;;;;;;;7.05;1.70;;;;;;;;;;2055709;28;20034;-48
2024/03/24 04:10:17;;;;;;;6.00;1.98;;;;;;;;;;2055795;28;20110;-49
2024/03/24 04:11:19;;;;;;;11.57;2.60;;;;;;;;;;2056373;28;20041;-48
2024/03/24 04:12:20;;;;;;;7.45;2.28;;;;;;;;;;2056390;28;20102;-48
2024/03/24 04:13:21;;;;;;;5.43;1.65;;;;;;;;;;2055873;28;20023;-48
2024/03/24 04:14:23;;;;;;;6.30;2.08;;;;;;;;;;2055814;28;20026;-49
2024/03/24 04:15:25;;;;;;;6.30;1.75;;;;;;;;;;2056506;28;20030;-48
2024/03/24 04:16:26;;;;;;;6.32;1.90;;;;;;;;;;2058293;28;20023;-49
2024/03/24 04:17:31;;;;;;;9.38;2.20;;;;;;;;;;2064531;28;20030;-48
2024/03/24 04:18:32;;;;;;;7.18;1.95;;;;;;;;;;2063714;28;20027;-48
2024/03/24 04:19:33;;;;;;;8.55;2.17;;;;;;;;;;2063945;28;20386;-49
2024/03/24 04:20:38;;;;;;;5.68;2.17;;;;;;;;;;2064470;28;20474;-48
2024/03/24 04:21:40;;;;;;;8.13;1.80;;;;;;;;;;2064417;28;20497;-49
2024/03/24 04:22:43;;;;;;;11.23;1.60;;;;;;;;;;2064417;28;20030;-48
2024/03/24 04:23:44;;;;;;;5.10;1.70;;;;;;;;;;2064333;28;20030;-48
2024/03/24 04:24:47;;;;;;;8.80;2.33;;;;;;;;;;2064313;28;20023;-48
2024/03/24 04:25:49;;;;;;;6.47;2.15;;;;;;;;;;2063654;28;20061;-49
2024/03/24 04:26:50;;;;;;;8.13;1.95;;;;;;;;;;2064371;28;20388;-50
2024/03/24 04:27:51;;;;;;;9.25;1.95;;;;;;;;;;2064601;28;20054;-51
2024/03/24 04:28:53;;;;;;;6.70;1.80;;;;;;;;;;2064483;28;20092;-49
2024/03/24 04:29:54;;;;;;;5.18;2.15;;;;;;;;;;2061059;28;20403;-49
2024/03/24 04:30:55;;;;;;;11.23;2.58;;;;;;;;;;2056317;28;20026;-50
2024/03/24 04:31:56;;;;;;;7.53;2.65;;;;;;;;;;2055681;28;20512;-51
2024/03/24 04:32:58;;;;;;;7.63;2.13;;;;;;;;;;2047661;28;20041;-50
2024/03/24 04:33:59;;;;;;;4.88;2.30;;;;;;;;;;2055738;28;20090;-48
2024/03/24 04:35:02;;;;;;;7.22;2.33;;;;;;;;;;2056416;28;20101;-49
2024/03/24 04:36:04;;;;;;;7.13;2.03;;;;;;;;;;2056417;28;20102;-49
2024/03/24 04:37:06;;;;;;;5.25;1.90;;;;;;;;;;2055801;28;20015;-48
2024/03/24 04:38:07;;;;;;;6.72;2.13;;;;;;;;;;2055722;28;20244;-47
2024/03/24 04:39:12;;;;;;;9.30;2.40;;;;;;;;;;2056282;28;20011;-51
2024/03/24 04:40:14;;;;;;;9.98;2.67;;;;;;;;;;2055542;28;20062;-50
2024/03/24 04:41:15;;;;;;;5.50;2.72;;;;;;;;;;2055793;28;20405;-49
2024/03/24 04:42:17;;;;;;;8.98;2.95;;;;;;;;;;2055659;28;20026;-51
2024/03/24 04:43:19;;;;;;;7.68;3.15;;;;;;;;;;2055450;28;20030;-49
2024/03/24 04:44:20;;;;;;;10.27;2.50;;;;;;;;;;2055547;28;20030;-49
2024/03/24 04:45:21;;;;;;;9.77;2.53;;;;;;;;;;2057808;28;20026;-51
2024/03/24 04:46:23;;;;;;;11.77;3.08;;;;;;;;;;2063541;28;20101;-50
2024/03/24 04:47:24;;;;;;;6.88;2.58;;;;;;;;;;2063639;28;20015;-47
2024/03/24 04:48:25;;;;;;;7.25;2.08;;;;;;;;;;2055656;28;20046;-49
2024/03/24 04:49:27;;;;;;;9.90;3.03;;;;;;;;;;2055678;28;20347;-50
2024/03/24 04:50:28;;;;;;;9.35;3.00;;;;;;;;;;2055590;28;20035;-48
2024/03/24 04:51:29;;;;;;;9.18;3.10;;;;;;;;;;2055787;28;20410;-49
2024/03/24 04:52:31;;;;;;;11.35;2.90;;;;;;;;;;2061819;28;20351;-49
2024/03/24 04:53:32;;;;;;;12.13;3.28;;;;;;;;;;2064379;28;20470;-49
2024/03/24 04:54:33;;;;;;;8.32;2.53;;;;;;;;;;2064839;28;20029;-49
2024/03/24 04:55:35;;;;;;;6.53;2.33;;;;;;;;;;2065322;28;20014;-50
2024/03/24 04:56:36;;;;;;;8.77;2.33;;;;;;;;;;2065166;28;20531;-50
2024/03/24 04:57:37;;;;;;;7.45;2.47;;;;;;;;;;2065160;28;20125;-49
2024/03/24 04:58:39;;;;;;;7.60;2.20;;;;;;;;;;2065264;28;20081;-49
2024/03/24 04:59:40;;;;;;;8.93;2.85;;;;;;;;;;2062897;28;20520;-49
2024/03/24 05:00:41;;;;;;;7.72;2.67;;;;;;;;;;2057812;28;20027;-54
2024/03/24 05:01:43;;;;;;;7.45;2.45;;;;;;;;;;2059405;28;20425;-49
2024/03/24 05:02:45;;;;;;;8.23;2.20;;;;;;;;;;2065955;28;20018;-51
2024/03/24 05:03:47;;;;;;;8.60;2.65;;;;;;;;;;2065800;28;20030;-50
2024/03/24 05:04:50;;;;;;;11.02;2.33;;;;;;;;;;2065820;28;20026;-49
2024/03/24 05:05:51;;;;;;;4.40;2.00;;;;;;;;;;2065748;28;20022;-50
2024/03/24 05:06:52;;;;;;;6.78;2.70;;;;;;;;;;2064908;28;20069;-50
2024/03/24 05:07:54;;;;;;;8.60;2.63;;;;;;;;;;2065032;28;20402;-52
2024/03/24 05:08:55;;;;;;;4.85;2.45;;;;;;;;;;2065364;28;20042;-50
2024/03/24 05:09:56;;;;;;;10.98;2.83;;;;;;;;;;2060953;28;20430;-50
2024/03/24 05:11:00;;;;;;;7.82;2.30;;;;;;;;;;2056956;28;20201;-50
2024/03/24 05:12:02;;;;;;;9.15;2.45;;;;;;;;;;2059568;28;20070;-50
2024/03/24 05:13:04;;;;;;;7.53;2.30;;;;;;;;;;2058535;28;20088;-50
2024/03/24 05:14:05;;;;;;;16.95;2.75;;;;;;;;;;2065697;28;20109;-50
2024/03/24 05:15:09;;;;;;;10.48;2.38;;;;;;;;;;2065684;28;20018;-50
2024/03/24 05:16:11;;;;;;;5.32;2.17;;;;;;;;;;2065703;28;20053;-50
2024/03/24 05:17:14;;;;;;;5.07;2.03;;;;;;;;;;2056963;28;20029;-51
2024/03/24 05:18:15;;;;;;;9.80;2.53;;;;;;;;;;2056975;28;20150;-50
2024/03/24 05:19:17;;;;;;;7.25;2.28;;;;;;;;;;2057507;28;20019;-50
2024/03/24 05:20:18;;;;;;;7.28;2.03;;;;;;;;;;2056786;28;20085;-50
2024/03/24 05:21:20;;;;;;;4.18;1.83;;;;;;;;;;2056864;28;20011;-49
2024/03/24 05:22:21;;;;;;;6.15;2.10;;;;;;;;;;2057591;28;20023;-50
2024/03/24 05:23:22;;;;;;;9.13;2.17;;;;;;;;;;2056918;28;20027;-50
2024/03/24 05:24:24;;;;;;;7.97;2.17;;;;;;;;;;2056861;28;20023;-50
2024/03/24 05:25:25;;;;;;;5.38;1.90;;;;;;;;;;2056976;28;20019;-50
2024/03/24 05:26:26;;;;;;;3.65;1.50;;;;;;;;;;2056029;28;20042;-49
2024/03/24 05:27:29;;;;;;;3.83;1.80;;;;;;;;;;2057459;28;20656;-49
2024/03/24 05:28:30;;;;;;;10.13;1.88;;;;;;;;;;2057577;28;20019;-49
2024/03/24 05:29:32;;;;;;;7.00;1.80;;;;;;;;;;2057455;28;20038;-50
2024/03/24 05:30:33;;;;;;;8.50;2.30;;;;;;;;;;2056737;28;20450;-51
2024/03/24 05:31:34;;;;;;;8.38;1.70;;;;;;;;;;2056955;28;20474;-51
2024/03/24 05:32:36;;;;;;;5.63;1.70;;;;;;;;;;2057507;28;20490;-50
2024/03/24 05:33:37;;;;;;;6.00;1.50;;;;;;;;;;2057406;28;20374;-49
2024/03/24 05:34:41;;;;;;;6.32;1.58;;;;;;;;;;2057860;28;20038;-48
2024/03/24 05:35:43;;;;;;;6.63;1.92;;;;;;;;;;2064915;28;20042;-48
2024/03/24 05:36:44;;;;;;;4.53;1.60;;;;;;;;;;2056562;28;20414;-47
2024/03/24 05:37:45;;;;;;;8.25;1.73;;;;;;;;;;2065167;28;20436;-49
2024/03/24 05:38:47;;;;;;;5.45;1.92;;;;;;;;;;2059914;28;20027;-48
2024/03/24 05:39:48;;;;;;;6.85;1.90;;;;;;;;;;2065619;28;20030;-48
2024/03/24 05:40:56;;;;;;;7.18;1.70;;;;;;;;;;2064895;28;20054;-48
2024/03/24 05:41:58;;;;;;;11.27;2.30;;;;;;;;;;2065084;28;20575;-48
2024/03/24 05:42:59;;;;;;;5.82;1.58;;;;;;;;;;2065499;28;20031;-50
2024/03/24 05:44:00;;;;;;;6.13;1.98;;;;;;;;;;2065311;28;20093;-48
2024/03/24 05:45:03;;;;;;;5.03;1.73;;;;;;;;;;2064356;28;20026;-49
2024/03/24 05:46:06;;;;;;;5.55;1.48;;;;;;;;;;2057544;28;20078;-48
2024/03/24 05:47:07;;;;;;;5.10;2.38;;;;;;;;;;2057450;28;20022;-49
2024/03/24 05:48:08;;;;;;;7.38;1.58;;;;;;;;;;2057375;28;20031;-49
2024/03/24 05:49:10;;;;;;;7.13;1.75;;;;;;;;;;2057255;28;20019;-49
2024/03/24 05:50:11;;;;;;;5.25;2.05;;;;;;;;;;2057558;28;20026;-48
2024/03/24 05:51:13;;;;;;;7.65;2.28;;;;;;;;;;2057439;28;20030;-48
2024/03/24 05:52:14;;;;;;;7.75;2.30;;;;;;;;;;2057379;28;20015;-48
2024/03/24 05:53:15;;;;;;;6.78;1.67;;;;;;;;;;2057515;28;20062;-48
2024/03/24 05:54:18;;;;;;;5.82;1.77;;;;;;;;;;2064828;28;20030;-49
2024/03/24 05:55:19;;;;;;;4.68;1.48;;;;;;;;;;2062760;28;20034;-48
2024/03/24 05:56:21;;;;;;;6.28;1.73;;;;;;;;;;2057538;28;20053;-49
2024/03/24 05:57:22;;;;;;;5.65;2.03;;;;;;;;;;2057188;28;20122;-49
2024/03/24 05:58:24;;;;;;;4.68;2.08;;;;;;;;;;2057363;28;20035;-49
2024/03/24 05:59:25;;;;;;;6.10;1.58;;;;;;;;;;2057272;28;20097;-49
2024/03/24 06:00:28;;;;;;;7.30;1.77;;;;;;;;;;2057283;28;20022;-48
2024/03/24 06:01:29;;;;;;;7.50;2.17;;;;;;;;;;2059172;28;20045;-49
2024/03/24 06:02:31;;;;;;;4.93;2.28;;;;;;;;;;2065421;28;20509;-50
2024/03/24 06:03:33;;;;;;;5.53;1.58;;;;;;;;;;2064553;28;20037;-49
2024/03/24 06:04:34;;;;;;;3.88;1.83;;;;;;;;;;2064541;28;20015;-48
2024/03/24 06:05:39;;;;;;;3.72;1.75;;;;;;;;;;2059625;28;20142;-49
2024/03/24 06:06:41;;;;;;;5.00;1.92;;;;;;;;;;2056479;28;21094;-49
2024/03/24 06:07:42;;;;;;;6.63;1.98;;;;;;;;;;2056617;28;20042;-49